Time;durP1;ratioP1;P1;durP2;ratioP2;P2;SDS_P1;SDS_P2;PMS_P1;PMS_P2;Temp;Humidity;BMP_temperature;BMP_pressure;BME280_temperature;BME280_humidity;BME280_pressure;Samples;Min_cycle;Max_cycle;Signal;HPM_P1;HPM_P2
2023/12/05 00:02:03;;;;;;;;;43.25;32.50;;;;;2.21;96.01;100000.97;5080402;28;11574;-67
2023/12/05 00:04:29;;;;;;;;;36.50;34.75;;;;;2.20;96.30;100000.16;5090688;28;11545;-67
2023/12/05 00:06:56;;;;;;;;;39.25;31.50;;;;;2.29;96.73;99997.53;5075595;28;12357;-67
2023/12/05 00:09:23;;;;;;;;;34.50;26.75;;;;;2.34;96.02;99993.38;5080329;28;11554;-68
2023/12/05 00:11:49;;;;;;;;;38.50;35.00;;;;;2.33;96.18;99997.03;5088840;28;12274;-67
2023/12/05 00:14:16;;;;;;;;;35.75;31.25;;;;;2.29;95.90;99992.22;5074069;28;11563;-68
2023/12/05 00:16:42;;;;;;;;;42.50;36.25;;;;;2.28;95.93;99987.91;5053974;28;11623;-68
2023/12/05 00:19:09;;;;;;;;;37.00;33.75;;;;;2.23;95.77;99991.06;5051154;28;11597;-66
2023/12/05 00:21:35;;;;;;;;;42.25;34.50;;;;;2.20;95.75;99991.38;5080095;28;11534;-67
2023/12/05 00:24:02;;;;;;;;;33.25;26.50;;;;;2.16;95.47;99998.81;5081413;28;12286;-66
2023/12/05 00:26:28;;;;;;;;;35.75;29.75;;;;;2.10;95.75;99996.78;5080581;28;11555;-67
2023/12/05 00:28:55;;;;;;;;;37.25;33.50;;;;;2.07;96.27;99981.19;5069738;28;11538;-68
2023/12/05 00:31:22;;;;;;;;;37.50;34.50;;;;;2.09;96.21;99983.69;5069511;28;11554;-67
2023/12/05 00:33:48;;;;;;;;;43.75;32.50;;;;;2.15;96.73;99983.06;5064552;28;11551;-68
2023/12/05 00:36:15;;;;;;;;;49.00;39.75;;;;;2.10;96.47;99974.72;5083502;28;11543;-66
2023/12/05 00:38:42;;;;;;;;;46.75;40.75;;;;;2.13;96.55;99979.72;5066315;28;12304;-67
2023/12/05 00:41:09;;;;;;;;;36.50;33.50;;;;;2.15;96.30;99972.44;5077548;28;11564;-66
2023/12/05 00:43:36;;;;;;;;;45.25;38.50;;;;;1.99;96.50;99973.22;5069942;28;11764;-67
2023/12/05 00:46:03;;;;;;;;;37.25;33.00;;;;;1.98;96.62;99967.06;5077357;28;11633;-66
2023/12/05 00:48:29;;;;;;;;;45.75;36.50;;;;;2.02;97.06;99967.56;5087049;28;11620;-66
2023/12/05 00:50:56;;;;;;;;;40.75;34.00;;;;;2.07;97.30;99959.97;5088771;28;11554;-66
2023/12/05 00:53:22;;;;;;;;;40.25;34.25;;;;;2.06;96.94;99973.38;5049330;28;11575;-68
2023/12/05 00:55:49;;;;;;;;;46.50;39.00;;;;;2.10;97.04;99978.19;5045335;28;11554;-67
2023/12/05 00:58:15;;;;;;;;;40.25;32.50;;;;;2.16;97.00;99968.78;5065758;28;11622;-67
2023/12/05 01:00:42;;;;;;;;;30.50;27.75;;;;;2.19;96.83;99974.59;5060643;28;11675;-67
2023/12/05 01:03:08;;;;;;;;;46.75;33.25;;;;;2.16;96.49;99979.41;5066353;28;11568;-68
2023/12/05 01:05:35;;;;;;;;;32.25;29.75;;;;;2.22;96.94;99970.78;5052744;28;11614;-68
2023/12/05 01:08:02;;;;;;;;;30.00;29.25;;;;;2.29;96.91;99971.78;5048634;28;11646;-67
2023/12/05 01:10:29;;;;;;;;;32.25;31.50;;;;;2.29;96.35;99965.66;5058216;28;11564;-67
2023/12/05 01:12:55;;;;;;;;;39.25;34.00;;;;;2.28;96.18;99969.31;5044177;28;11643;-67
2023/12/05 01:15:22;;;;;;;;;44.00;35.50;;;;;2.23;96.00;99969.81;5048315;28;11565;-70
2023/12/05 01:17:49;;;;;;;;;36.75;34.50;;;;;2.19;96.08;99971.13;5048746;28;11602;-67
2023/12/05 01:20:16;;;;;;;;;38.00;28.50;;;;;2.22;96.46;99978.75;5045733;28;11582;-69
2023/12/05 01:22:42;;;;;;;;;34.50;28.50;;;;;2.20;95.55;99972.78;5045511;28;11579;-66
2023/12/05 01:25:09;;;;;;;;;37.00;34.25;;;;;2.07;95.80;99969.75;5050194;28;11629;-69
2023/12/05 01:27:35;;;;;;;;;41.75;36.00;;;;;2.02;96.07;99967.56;5033138;28;11588;-66
2023/12/05 01:30:04;;;;;;;;;34.25;31.75;;;;;2.01;96.28;99979.16;5034835;28;11608;-67
2023/12/05 01:32:30;;;;;;;;;39.75;33.50;;;;;2.04;96.32;99976.22;5033997;28;11594;-67
2023/12/05 01:34:57;;;;;;;;;34.50;32.75;;;;;2.07;97.03;99965.28;5051348;28;11567;-70
2023/12/05 01:37:23;;;;;;;;;35.00;29.50;;;;;2.12;96.60;99972.75;5049532;28;11649;-67
2023/12/05 01:39:50;;;;;;;;;33.75;28.75;;;;;2.16;96.55;99971.44;5051254;28;11554;-67
2023/12/05 01:42:16;;;;;;;;;37.00;29.50;;;;;2.19;96.73;99973.78;5049692;28;11581;-67
2023/12/05 01:44:43;;;;;;;;;42.00;28.00;;;;;2.16;96.17;99974.91;5052959;28;11571;-67
2023/12/05 01:47:11;;;;;;;;;29.00;28.50;;;;;2.14;96.35;99978.72;5051585;28;11619;-67
2023/12/05 01:49:38;;;;;;;;;32.50;30.75;;;;;2.16;95.85;99974.09;5047231;28;11582;-67
2023/12/05 01:52:05;;;;;;;;;43.50;37.00;;;;;2.15;96.06;99983.88;5056969;28;11650;-67
2023/12/05 01:54:32;;;;;;;;;32.25;27.25;;;;;2.19;96.07;99973.78;5094091;28;11509;-66
2023/12/05 01:57:00;;;;;;;;;34.75;31.25;;;;;2.16;95.65;99974.91;5058109;28;11547;-66
2023/12/05 01:59:27;;;;;;;;;42.00;33.50;;;;;2.11;95.90;99985.19;5072288;28;11562;-67
2023/12/05 02:01:54;;;;;;;;;34.50;30.50;;;;;2.11;95.99;99979.88;5075224;28;11538;-67
2023/12/05 02:04:21;;;;;;;;;32.75;28.25;;;;;2.15;96.31;99989.19;5099677;28;12253;-67
2023/12/05 02:06:49;;;;;;;;;36.50;32.25;;;;;2.11;95.96;99987.03;5105268;28;11914;-67
2023/12/05 02:09:16;;;;;;;;;36.00;30.75;;;;;2.08;95.87;99987.34;5078069;28;11615;-69
2023/12/05 02:11:43;;;;;;;;;37.25;31.00;;;;;2.01;95.80;99981.81;5086574;28;11608;-69
2023/12/05 02:14:10;;;;;;;;;33.50;27.50;;;;;2.06;96.27;99990.13;5096622;28;11499;-67
2023/12/05 02:16:42;;;;;;;;;32.75;29.50;;;;;2.03;96.25;99985.16;5088876;28;11549;-67
2023/12/05 02:19:42;;;;;;;;;42.75;32.75;;;;;2.12;95.91;99986.84;5078344;28;11495;-67
2023/12/05 02:22:23;;;;;;;;;34.25;30.75;;;;;2.18;95.96;99999.47;5112657;28;11037;-69
2023/12/05 02:25:07;;;;;;;;;42.25;33.50;;;;;2.10;95.28;100002.09;5112903;28;11085;-69
2023/12/05 02:27:39;;;;;;;;;31.00;25.50;;;;;2.16;96.17;100000.63;5099658;28;11520;-69
2023/12/05 02:30:06;;;;;;;;;34.25;30.00;;;;;2.17;95.96;99991.69;5087081;28;12634;-68
2023/12/05 02:32:33;;;;;;;;;30.50;25.50;;;;;2.21;96.39;99993.00;5102800;28;11599;-69
2023/12/05 02:35:00;;;;;;;;;33.50;24.00;;;;;2.26;95.99;99993.34;5098659;28;11528;-68
2023/12/05 02:37:31;;;;;;;;;44.75;34.25;;;;;2.17;95.16;99991.69;5081451;28;11524;-67
2023/12/05 02:40:07;;;;;;;;;34.25;33.00;;;;;2.16;95.53;99995.34;5091735;28;11544;-66
2023/12/05 02:42:35;;;;;;;;;38.50;33.00;;;;;2.12;95.81;99989.50;5091698;28;12252;-69
2023/12/05 02:45:04;;;;;;;;;34.00;26.25;;;;;2.13;95.96;99988.50;5070317;28;11484;-68
2023/12/05 02:47:32;;;;;;;;;42.50;34.50;;;;;2.13;95.54;99988.50;5096247;28;11519;-68
2023/12/05 02:49:59;;;;;;;;;36.75;29.25;;;;;2.15;95.82;99988.38;5103176;28;11529;-69
2023/12/05 02:52:26;;;;;;;;;42.25;33.75;;;;;2.12;95.95;99986.84;5076447;28;12308;-68
2023/12/05 02:54:52;;;;;;;;;33.25;24.75;;;;;2.10;95.15;99990.66;5091854;28;11526;-69
2023/12/05 02:57:19;;;;;;;;;35.25;29.25;;;;;2.11;96.20;99987.03;5096601;28;11534;-68
2023/12/05 02:59:45;;;;;;;;;32.25;28.50;;;;;2.12;95.64;99988.69;5091343;28;11517;-67
2023/12/05 03:02:12;;;;;;;;;38.00;29.25;;;;;2.12;95.64;99984.19;5107806;28;11523;-68
2023/12/05 03:04:41;;;;;;;;;34.00;26.75;;;;;2.16;96.01;99996.16;5109970;28;11513;-66
2023/12/05 03:07:08;;;;;;;;;35.25;30.25;;;;;2.11;95.63;99990.50;5091577;28;11485;-69
2023/12/05 03:09:34;;;;;;;;;37.75;34.25;;;;;2.00;95.48;99985.47;5078767;28;11547;-65
2023/12/05 03:12:01;;;;;;;;;36.75;27.75;;;;;1.94;95.67;99994.91;5099719;28;11607;-66
2023/12/05 03:14:27;;;;;;;;;37.00;35.50;;;;;1.95;96.37;99993.09;5080441;28;11686;-67
2023/12/05 03:16:55;;;;;;;;;36.25;31.50;;;;;2.01;96.59;99991.63;5090878;28;11493;-66
2023/12/05 03:19:21;;;;;;;;;35.25;33.00;;;;;2.08;96.48;99987.34;5090255;28;11556;-67
2023/12/05 03:21:48;;;;;;;;;37.00;33.75;;;;;2.09;95.89;99995.13;5078004;28;11561;-69
2023/12/05 03:24:14;;;;;;;;;40.25;33.00;;;;;2.12;96.24;100000.13;5090449;28;11548;-66
2023/12/05 03:26:41;;;;;;;;;42.25;40.00;;;;;2.07;95.91;99989.16;5085766;28;11503;-66
2023/12/05 03:29:07;;;;;;;;;33.00;28.75;;;;;2.09;96.36;99991.66;5096865;28;11530;-66
2023/12/05 03:31:35;;;;;;;;;36.50;33.00;;;;;2.12;96.27;99994.00;5072099;28;11591;-66
2023/12/05 03:34:02;;;;;;;;;39.25;35.00;;;;;2.10;95.72;99988.00;5109387;28;11489;-66
2023/12/05 03:36:29;;;;;;;;;35.25;33.75;;;;;2.00;95.41;99987.31;5087479;28;12276;-67
2023/12/05 03:38:56;;;;;;;;;41.50;32.75;;;;;2.00;95.70;99990.78;5052794;28;11532;-66
2023/12/05 03:41:22;;;;;;;;;35.50;34.75;;;;;1.98;95.93;99987.44;5082752;28;11581;-68
2023/12/05 03:43:49;;;;;;;;;41.00;32.00;;;;;2.00;95.91;99989.97;5081541;28;11583;-66
2023/12/05 03:46:15;;;;;;;;;39.00;32.25;;;;;1.97;96.07;99985.78;5093447;28;11514;-66
2023/12/05 03:48:42;;;;;;;;;28.25;25.00;;;;;2.04;96.41;99991.31;5090190;28;11524;-66
2023/12/05 03:51:08;;;;;;;;;33.25;30.00;;;;;2.02;95.37;99996.75;5058076;28;11578;-66
2023/12/05 03:53:35;;;;;;;;;35.25;31.00;;;;;1.95;96.12;99983.31;5070639;28;11584;-68
2023/12/05 03:56:01;;;;;;;;;32.50;26.25;;;;;2.02;96.11;99980.00;5078899;28;11526;-67
2023/12/05 03:58:28;;;;;;;;;40.50;33.50;;;;;2.03;95.90;99987.81;5098655;28;11498;-67
2023/12/05 04:00:55;;;;;;;;;40.25;33.75;;;;;2.02;95.31;99993.28;5068599;28;11530;-68
2023/12/05 04:03:21;;;;;;;;;38.00;33.00;;;;;2.01;96.12;99996.94;5057263;28;11513;-68
2023/12/05 04:05:48;;;;;;;;;35.75;30.75;;;;;2.02;95.83;100002.06;5084194;28;11487;-67
2023/12/05 04:08:14;;;;;;;;;42.25;33.75;;;;;2.00;96.04;99992.63;5059895;28;12375;-67
2023/12/05 04:10:41;;;;;;;;;30.75;28.50;;;;;2.04;95.93;100002.75;5092257;28;11520;-68
2023/12/05 04:13:07;;;;;;;;;42.75;37.00;;;;;2.05;95.90;100003.56;5105905;28;11500;-69
2023/12/05 04:15:34;;;;;;;;;32.50;32.50;;;;;2.02;95.51;100009.19;5076331;28;12253;-68
2023/12/05 04:18:01;;;;;;;;;40.00;36.00;;;;;2.03;96.04;100003.75;5093951;28;11547;-68
2023/12/05 04:20:27;;;;;;;;;37.50;32.75;;;;;2.00;95.99;100005.88;5073775;28;11513;-67
2023/12/05 04:22:54;;;;;;;;;42.50;35.25;;;;;1.95;95.88;100004.53;5108460;28;11556;-69
2023/12/05 04:25:20;;;;;;;;;37.50;31.00;;;;;1.89;95.45;100007.81;5091184;28;11560;-68
2023/12/05 04:27:47;;;;;;;;;45.75;35.25;;;;;1.87;96.12;100004.50;5110452;28;11518;-67
2023/12/05 04:30:13;;;;;;;;;38.50;34.00;;;;;1.93;96.26;100008.34;5099433;28;11549;-67
2023/12/05 04:32:40;;;;;;;;;37.75;32.50;;;;;1.93;96.07;100009.16;5110351;28;12299;-70
2023/12/05 04:35:06;;;;;;;;;44.75;36.25;;;;;1.90;95.68;100006.81;5099981;28;11524;-67
2023/12/05 04:37:33;;;;;;;;;39.75;33.75;;;;;1.90;96.01;100009.47;5072393;28;12265;-68
2023/12/05 04:40:00;;;;;;;;;38.00;34.50;;;;;1.86;95.80;100012.59;5097668;28;11562;-67
2023/12/05 04:42:26;;;;;;;;;45.00;40.00;;;;;1.85;95.91;100014.44;5093740;28;11682;-71
2023/12/05 04:44:52;;;;;;;;;52.00;39.00;;;;;1.72;95.49;100019.34;5072486;28;11697;-68
2023/12/05 04:47:19;;;;;;;;;42.25;33.00;;;;;1.78;96.22;100020.53;5096941;28;11553;-68
2023/12/05 04:49:45;;;;;;;;;35.00;33.00;;;;;1.78;96.55;100026.66;5089952;28;11512;-67
2023/12/05 04:52:12;;;;;;;;;37.50;29.50;;;;;1.79;96.25;100031.00;5091229;28;12357;-67
2023/12/05 04:54:39;;;;;;;;;41.25;30.75;;;;;1.80;96.43;100032.66;5098835;28;11515;-68
2023/12/05 04:57:05;;;;;;;;;44.25;36.25;;;;;1.78;96.23;100033.78;5107446;28;11501;-67
2023/12/05 04:59:32;;;;;;;;;40.25;32.00;;;;;1.75;96.03;100040.25;5085264;28;11616;-67
2023/12/05 05:01:58;;;;;;;;;32.00;30.00;;;;;1.70;96.40;100040.75;5100813;28;11530;-67
2023/12/05 05:04:25;;;;;;;;;39.50;33.50;;;;;1.78;96.26;100049.72;5085593;28;11524;-67
2023/12/05 05:06:51;;;;;;;;;30.50;29.00;;;;;1.81;96.47;100038.78;5114939;28;11563;-67
2023/12/05 05:09:18;;;;;;;;;38.50;31.25;;;;;1.87;96.39;100039.00;5107578;28;11522;-66
2023/12/05 05:11:44;;;;;;;;;38.75;31.25;;;;;1.85;96.33;100040.97;5061996;28;12209;-68
2023/12/05 05:14:11;;;;;;;;;33.00;27.25;;;;;1.84;96.50;100043.78;5102163;28;11593;-67
2023/12/05 05:16:37;;;;;;;;;38.25;31.50;;;;;1.95;96.39;100046.19;5093475;28;11805;-68
2023/12/05 05:19:05;;;;;;;;;34.50;27.50;;;;;2.02;96.03;100043.72;5093658;28;11492;-68
2023/12/05 05:21:31;;;;;;;;;32.25;32.00;;;;;1.96;95.24;100039.88;5104090;28;11535;-68
2023/12/05 05:23:58;;;;;;;;;31.75;30.25;;;;;1.95;95.52;100054.97;5114103;28;12333;-68
2023/12/05 05:26:25;;;;;;;;;41.25;30.50;;;;;1.93;95.52;100053.44;5077603;28;11502;-67
2023/12/05 05:28:51;;;;;;;;;36.00;32.25;;;;;1.95;95.45;100054.16;5082701;28;11501;-67
2023/12/05 05:31:17;;;;;;;;;38.75;31.75;;;;;1.90;95.08;100045.78;5099326;28;11511;-69
2023/12/05 05:33:44;;;;;;;;;32.25;27.75;;;;;1.91;95.58;100058.09;5094075;28;11508;-67
2023/12/05 05:36:13;;;;;;;;;33.00;31.50;;;;;1.90;95.54;100053.75;5111830;28;11630;-67
2023/12/05 05:38:39;;;;;;;;;32.25;29.25;;;;;1.94;95.69;100052.44;5073270;28;11538;-67
2023/12/05 05:41:06;;;;;;;;;37.75;30.75;;;;;2.00;96.16;100053.66;5097113;28;11552;-68
2023/12/05 05:43:33;;;;;;;;;33.75;32.00;;;;;1.98;95.54;100056.47;5104041;28;11532;-68
2023/12/05 05:46:00;;;;;;;;;36.75;31.25;;;;;1.93;95.59;100061.41;5074526;28;11543;-68
2023/12/05 05:48:27;;;;;;;;;41.25;28.75;;;;;1.92;94.99;100063.25;5074320;28;11511;-67
2023/12/05 05:50:55;;;;;;;;;35.50;30.25;;;;;1.96;95.56;100067.25;5086904;28;11560;-66
2023/12/05 05:53:21;;;;;;;;;41.50;33.50;;;;;1.91;94.95;100063.41;5101421;28;11568;-71
2023/12/05 05:55:48;;;;;;;;;39.25;30.25;;;;;1.95;95.36;100062.94;5101967;28;11510;-71
2023/12/05 05:58:14;;;;;;;;;42.25;32.25;;;;;2.01;95.30;100071.25;5099136;28;11644;-70
2023/12/05 06:00:41;;;;;;;;;33.75;27.25;;;;;2.02;95.48;100062.28;5093074;28;12239;-70
2023/12/05 06:03:08;;;;;;;;;32.25;29.25;;;;;1.96;94.95;100071.72;5078971;28;11517;-70
2023/12/05 06:05:35;;;;;;;;;39.00;35.50;;;;;1.89;94.84;100082.13;5097030;28;11514;-69
2023/12/05 06:08:02;;;;;;;;;28.00;26.50;;;;;1.92;95.53;100081.00;5096153;28;11644;-70
2023/12/05 06:10:28;;;;;;;;;33.25;28.75;;;;;1.95;95.39;100078.03;5110676;28;11506;-70
2023/12/05 06:12:55;;;;;;;;;38.00;30.50;;;;;1.91;95.18;100079.34;5091606;28;11521;-69
2023/12/05 06:15:21;;;;;;;;;38.50;34.00;;;;;1.96;95.70;100083.16;5074546;28;11573;-70
2023/12/05 06:17:48;;;;;;;;;34.50;28.75;;;;;1.91;94.86;100085.47;5091405;28;11492;-70
2023/12/05 06:20:14;;;;;;;;;30.50;27.75;;;;;1.91;95.12;100082.81;5101262;28;11599;-70
2023/12/05 06:22:41;;;;;;;;;38.00;29.75;;;;;1.94;95.20;100085.13;5063803;28;11559;-68
2023/12/05 06:25:07;;;;;;;;;29.75;25.50;;;;;1.96;95.61;100083.16;5090112;28;11494;-69
2023/12/05 06:27:34;;;;;;;;;41.50;35.75;;;;;1.97;95.13;100084.81;5110847;28;11490;-68
2023/12/05 06:30:00;;;;;;;;;43.75;37.50;;;;;1.91;95.36;100077.50;5087645;28;11669;-70
2023/12/05 06:32:42;;;;;;;;;31.50;26.75;;;;;1.92;95.11;100083.63;5067341;28;11562;-71
2023/12/05 06:35:09;;;;;;;;;35.75;31.25;;;;;1.93;95.11;100082.66;5073126;28;11527;-71
2023/12/05 06:37:35;;;;;;;;;37.75;31.00;;;;;1.93;95.22;100088.78;5098304;28;11506;-68
2023/12/05 06:40:02;;;;;;;;;38.75;33.50;;;;;1.93;95.31;100085.31;5106206;28;11508;-69
2023/12/05 06:42:29;;;;;;;;;43.00;36.25;;;;;1.98;95.84;100091.81;5099531;28;11607;-70
2023/12/05 06:44:55;;;;;;;;;32.50;28.75;;;;;1.94;95.33;100102.88;5112319;28;12274;-70
2023/12/05 06:47:22;;;;;;;;;47.50;37.25;;;;;1.93;95.50;100102.06;5098595;28;11550;-70
2023/12/05 06:49:48;;;;;;;;;43.25;38.25;;;;;1.84;95.72;100105.66;5087103;28;11619;-70
2023/12/05 06:52:15;;;;;;;;;38.75;33.00;;;;;1.89;95.60;100113.97;5094194;28;11535;-69
2023/12/05 06:54:41;;;;;;;;;34.75;31.25;;;;;1.94;96.02;100109.00;5072955;28;11550;-69
2023/12/05 06:57:08;;;;;;;;;30.25;29.75;;;;;1.98;95.62;100115.72;5085001;28;11499;-68
2023/12/05 06:59:35;;;;;;;;;38.00;31.00;;;;;1.96;95.49;100122.97;5090362;28;12385;-70
2023/12/05 07:02:01;;;;;;;;;37.50;33.00;;;;;1.98;95.81;100115.72;5075534;28;11542;-69
2023/12/05 07:04:28;;;;;;;;;31.50;29.50;;;;;2.00;95.57;100120.03;5093237;28;11515;-70
2023/12/05 07:06:55;;;;;;;;;43.00;33.25;;;;;1.95;95.55;100121.31;5099813;28;11522;-69
2023/12/05 07:09:22;;;;;;;;;39.25;36.00;;;;;1.96;95.92;100133.59;5092188;28;11640;-71
2023/12/05 07:11:49;;;;;;;;;32.75;32.00;;;;;1.99;95.59;100135.13;5090952;28;11527;-70
2023/12/05 07:14:16;;;;;;;;;38.00;31.00;;;;;2.08;95.91;100141.31;5066486;28;11642;-69
2023/12/05 07:16:42;;;;;;;;;35.00;29.50;;;;;2.13;96.29;100144.31;5091043;28;11993;-72
2023/12/05 07:19:08;;;;;;;;;27.75;27.75;;;;;2.30;97.63;100154.03;5088566;28;11558;-69
2023/12/05 07:21:35;;;;;;;;;40.00;35.75;;;;;2.27;95.91;100157.03;5102874;28;11524;-69
2023/12/05 07:24:02;;;;;;;;;39.00;31.75;;;;;2.19;95.87;100157.81;5064065;28;11559;-71
2023/12/05 07:26:28;;;;;;;;;45.75;37.50;;;;;2.17;95.59;100157.13;5064406;28;11153;-70
2023/12/05 07:28:55;;;;;;;;;32.75;27.50;;;;;2.19;96.28;100164.94;5089942;28;11562;-69
2023/12/05 07:31:21;;;;;;;;;37.00;33.00;;;;;2.22;96.38;100170.75;5090756;28;11524;-70
2023/12/05 07:33:48;;;;;;;;;22.50;13.00;;;;;2.19;95.57;100170.25;5069576;28;11506;-70
2023/12/05 07:36:15;;;;;;;;;38.50;31.50;;;;;2.18;95.51;100184.50;5095633;28;11457;-69
2023/12/05 07:38:41;;;;;;;;;21.50;19.00;;;;;2.61;100.00;100180.94;5089371;28;11528;-70
2023/12/05 07:41:18;;;;;;;;;41.75;34.25;;;;;2.75;98.06;100181.31;5073887;28;11479;-69
2023/12/05 07:43:45;;;;;;;;;37.00;30.25;;;;;2.61;97.07;100172.97;5075605;28;11530;-70
2023/12/05 07:46:11;;;;;;;;;38.00;34.00;;;;;2.42;95.79;100184.63;5087355;28;11638;-69
2023/12/05 07:48:38;;;;;;;;;31.50;23.50;;;;;2.25;95.33;100187.38;5072251;28;11544;-70
2023/12/05 07:51:05;;;;;;;;;42.00;32.00;;;;;2.22;95.38;100189.34;5072516;28;11505;-70
2023/12/05 07:53:31;;;;;;;;;41.25;33.50;;;;;2.10;95.42;100195.88;5090665;28;12255;-69
2023/12/05 07:55:58;;;;;;;;;37.00;31.00;;;;;2.06;95.90;100193.72;5090536;28;11517;-69
2023/12/05 07:58:25;;;;;;;;;38.00;32.00;;;;;2.02;95.77;100187.88;5072211;28;11495;-70
2023/12/05 08:00:52;;;;;;;;;42.75;37.00;;;;;2.05;96.01;100189.41;5068900;28;12259;-69
2023/12/05 08:03:18;;;;;;;;;44.75;36.50;;;;;2.05;95.86;100194.69;5070213;28;11568;-70
2023/12/05 08:05:45;;;;;;;;;36.75;29.50;;;;;2.11;96.21;100196.75;5071492;28;11527;-70
2023/12/05 08:08:11;;;;;;;;;41.50;37.25;;;;;2.10;96.07;100193.22;5089914;28;12390;-70
2023/12/05 08:10:38;;;;;;;;;40.75;35.25;;;;;2.11;96.10;100202.06;5078546;28;11527;-69
2023/12/05 08:13:04;;;;;;;;;46.25;33.75;;;;;2.10;95.96;100197.72;5090164;28;11511;-69
2023/12/05 08:15:31;;;;;;;;;36.50;30.75;;;;;2.12;96.18;100203.72;5090023;28;12258;-70
2023/12/05 08:17:57;;;;;;;;;48.25;38.50;;;;;2.11;96.12;100202.88;5088998;28;11512;-70
2023/12/05 08:20:24;;;;;;;;;35.25;31.50;;;;;2.15;96.24;100208.72;5085218;28;11630;-70
2023/12/05 08:22:50;;;;;;;;;41.25;33.50;;;;;2.13;96.08;100206.22;5081322;28;11536;-69
2023/12/05 08:25:17;;;;;;;;;41.75;31.75;;;;;2.23;96.35;100204.28;5090177;28;11496;-69
2023/12/05 08:27:43;;;;;;;;;41.50;35.00;;;;;2.21;96.22;100214.22;5089974;28;12264;-69
2023/12/05 08:30:11;;;;;;;;;44.00;37.00;;;;;2.18;95.57;100211.88;5070540;28;11517;-70
2023/12/05 08:32:37;;;;;;;;;42.25;34.50;;;;;2.16;95.44;100213.88;5089575;28;12302;-69
2023/12/05 08:35:04;;;;;;;;;41.75;32.00;;;;;2.17;95.54;100220.00;5087428;28;11512;-70
2023/12/05 08:37:32;;;;;;;;;42.25;33.75;;;;;2.21;95.70;100224.84;5069840;28;11554;-70
2023/12/05 08:39:58;;;;;;;;;39.50;30.50;;;;;2.19;95.29;100220.69;5070194;28;12313;-70
2023/12/05 08:42:28;;;;;;;;;36.50;31.75;;;;;2.23;95.79;100235.34;5071854;28;11586;-70
2023/12/05 08:44:54;;;;;;;;;33.25;30.75;;;;;2.25;95.57;100230.69;5089801;28;12225;-70
2023/12/05 08:47:21;;;;;;;;;45.25;40.25;;;;;2.21;95.22;100234.63;5090228;28;11518;-70
2023/12/05 08:49:47;;;;;;;;;35.50;32.25;;;;;2.17;94.95;100238.59;5073292;28;11693;-69
2023/12/05 08:52:14;;;;;;;;;45.75;39.50;;;;;2.09;95.07;100238.53;5071846;28;11527;-70
2023/12/05 08:54:40;;;;;;;;;42.50;35.75;;;;;2.05;95.47;100237.19;5090110;28;12331;-69
2023/12/05 08:57:07;;;;;;;;;42.00;35.25;;;;;2.08;95.15;100247.50;5055408;28;12279;-70
2023/12/05 08:59:34;;;;;;;;;49.00;41.75;;;;;2.04;95.27;100246.13;5089692;28;11526;-70
2023/12/05 09:02:00;;;;;;;;;36.75;36.00;;;;;2.10;95.58;100243.69;5072559;28;11609;-70
2023/12/05 09:04:27;;;;;;;;;49.00;40.00;;;;;2.16;95.48;100252.88;5070798;28;11580;-70
2023/12/05 09:06:54;;;;;;;;;36.25;34.75;;;;;2.16;95.61;100260.84;5069662;28;12406;-70
2023/12/05 09:09:21;;;;;;;;;40.50;33.00;;;;;2.13;95.22;100256.66;5068094;28;11584;-69
2023/12/05 09:11:47;;;;;;;;;49.75;41.25;;;;;2.09;95.17;100255.28;5084464;28;11625;-70
2023/12/05 09:14:13;;;;;;;;;52.50;43.25;;;;;2.09;95.32;100255.28;5089909;28;11584;-68
2023/12/05 09:16:40;;;;;;;;;43.00;39.75;;;;;2.16;95.38;100261.66;5088358;28;11517;-69
2023/12/05 09:19:08;;;;;;;;;45.75;37.00;;;;;2.17;94.67;100257.19;5073187;28;11567;-70
2023/12/05 09:21:35;;;;;;;;;38.25;34.25;;;;;2.10;94.89;100258.78;5071542;28;11529;-70
2023/12/05 09:24:01;;;;;;;;;49.75;41.50;;;;;2.14;95.22;100268.94;5071576;28;12306;-70
2023/12/05 09:26:29;;;;;;;;;49.00;38.75;;;;;2.15;94.97;100267.97;5089422;28;12118;-68
2023/12/05 09:28:55;;;;;;;;;46.50;37.25;;;;;2.15;95.36;100281.25;5089410;28;11503;-70
2023/12/05 09:31:22;;;;;;;;;53.25;41.00;;;;;2.07;95.06;100277.69;5088020;28;11523;-70
2023/12/05 09:33:49;;;;;;;;;36.00;31.50;;;;;2.06;95.04;100276.00;5070178;28;11556;-69
2023/12/05 09:36:16;;;;;;;;;47.00;35.75;;;;;2.04;95.10;100280.66;5089220;28;11635;-70
2023/12/05 09:38:42;;;;;;;;;45.25;38.25;;;;;2.03;95.00;100286.94;5088191;28;11670;-68
2023/12/05 09:41:12;;;;;;;;;30.50;27.25;;;;;2.12;95.54;100294.81;5080249;28;12394;-70
2023/12/05 09:43:39;;;;;;;;;52.75;39.50;;;;;2.14;94.89;100302.63;5077430;28;11553;-68
2023/12/05 09:46:09;;;;;;;;;46.75;39.75;;;;;2.15;95.13;100302.47;5089313;28;11530;-70
2023/12/05 09:48:47;;;;;;;;;35.75;33.00;;;;;2.19;94.71;100305.66;5089583;28;11571;-71
2023/12/05 09:51:15;;;;;;;;;47.50;42.00;;;;;2.19;94.98;100303.84;5075036;28;12349;-70
2023/12/05 09:53:43;;;;;;;;;32.75;28.50;;;;;2.19;94.75;100306.50;5092832;28;11537;-70
2023/12/05 09:56:11;;;;;;;;;43.00;35.00;;;;;2.16;94.51;100298.00;5093065;28;11530;-71
2023/12/05 09:58:42;;;;;;;;;43.75;38.25;;;;;2.11;94.38;100303.78;5085301;28;11559;-70
2023/12/05 10:01:09;;;;;;;;;44.00;35.25;;;;;2.04;94.58;100315.16;5072608;28;11663;-68
2023/12/05 10:03:39;;;;;;;;;39.00;34.75;;;;;2.11;94.84;100316.22;5073398;28;11539;-69
2023/12/05 10:06:07;;;;;;;;;42.25;38.25;;;;;2.13;94.67;100317.72;5087824;28;11571;-70
2023/12/05 10:08:35;;;;;;;;;37.75;32.25;;;;;2.08;95.13;100325.31;5077248;28;11568;-70
2023/12/05 10:11:04;;;;;;;;;35.50;30.75;;;;;2.12;94.62;100326.69;5073055;28;11549;-69
2023/12/05 10:13:31;;;;;;;;;36.25;33.25;;;;;2.11;94.76;100332.16;5072547;28;11677;-70
2023/12/05 10:15:59;;;;;;;;;43.25;32.25;;;;;2.09;94.47;100332.28;5073431;28;11035;-69
2023/12/05 10:18:27;;;;;;;;;37.50;33.50;;;;;2.10;94.04;100341.06;5081238;28;11496;-70
2023/12/05 10:20:54;;;;;;;;;37.00;31.25;;;;;2.15;94.21;100338.81;5071905;28;11526;-70
2023/12/05 10:23:22;;;;;;;;;32.00;27.00;;;;;2.17;94.57;100342.97;5066364;28;11664;-70
2023/12/05 10:25:48;;;;;;;;;49.50;36.50;;;;;2.14;93.68;100342.44;5072101;28;11572;-70
2023/12/05 10:28:15;;;;;;;;;44.50;37.75;;;;;2.13;94.21;100346.09;5071819;28;11589;-70
2023/12/05 10:30:41;;;;;;;;;32.75;28.25;;;;;2.18;93.88;100355.25;5070876;28;11567;-70
2023/12/05 10:33:09;;;;;;;;;45.50;34.75;;;;;2.18;93.70;100362.38;5090743;28;11511;-70
2023/12/05 10:35:37;;;;;;;;;41.00;33.00;;;;;2.16;93.70;100359.91;5087646;28;11494;-71
2023/12/05 10:38:10;;;;;;;;;47.75;37.00;;;;;2.15;93.78;100365.38;5070241;28;12294;-69
2023/12/05 10:40:52;;;;;;;;;33.50;28.75;;;;;2.25;94.54;100368.78;5071774;28;11561;-70
2023/12/05 10:43:20;;;;;;;;;33.50;29.50;;;;;2.30;94.04;100365.66;5053507;28;11601;-70
2023/12/05 10:45:47;;;;;;;;;30.50;28.50;;;;;2.36;93.84;100370.38;5056340;28;11579;-69
2023/12/05 10:48:15;;;;;;;;;41.00;33.00;;;;;2.38;93.53;100366.56;5083643;28;12281;-70
2023/12/05 10:50:43;;;;;;;;;42.75;32.75;;;;;2.34;93.30;100362.53;5069632;28;11625;-69
2023/12/05 10:53:10;;;;;;;;;34.50;30.50;;;;;2.28;93.21;100357.84;5071997;28;11561;-71
2023/12/05 10:55:36;;;;;;;;;33.25;33.00;;;;;2.30;93.20;100361.16;5073258;28;11513;-69
2023/12/05 10:58:04;;;;;;;;;47.75;34.25;;;;;2.30;93.39;100368.31;5068660;28;11654;-69
2023/12/05 11:00:31;;;;;;;;;36.00;29.25;;;;;2.30;93.24;100369.16;5071291;28;11600;-70
2023/12/05 11:02:59;;;;;;;;;36.25;31.25;;;;;2.29;93.37;100374.63;5069842;28;11653;-70
2023/12/05 11:05:27;;;;;;;;;43.75;39.00;;;;;2.26;92.90;100372.25;5071325;28;11618;-70
2023/12/05 11:07:54;;;;;;;;;39.50;27.75;;;;;2.29;93.53;100371.97;5074420;28;11573;-70
2023/12/05 11:10:22;;;;;;;;;41.75;32.25;;;;;2.29;92.67;100372.78;5070960;28;12298;-70
2023/12/05 11:12:50;;;;;;;;;37.00;35.75;;;;;2.15;93.04;100374.16;5069810;28;11530;-71
2023/12/05 11:15:23;;;;;;;;;35.25;31.75;;;;;2.12;92.76;100376.28;5071334;28;11541;-70
2023/12/05 11:18:32;;;;;;;;;38.50;33.75;;;;;2.15;93.44;100374.16;5084258;28;11540;-70
2023/12/05 11:21:45;;;;;;;;;33.00;29.25;;;;;2.18;93.32;100370.34;5091135;28;11519;-71